1987 MISSING (1987336N10085)


On this page: IBTrACS data - Map and Plots - Positions - Intensities - Original source data

Summary

Start Dec 2
End Dec 13
Basin NI
LMI 45 kt
Sources jtwc_io
td9636
In WMO? No
Previous storm 1988 HSK0288 (SI)
Previous in basin 1987 MISSING (NI)
Concurrent storms 1987 MISSING (NI)
1988 ARINY (SI)
1987 PHYLLIS (WP)
Next in basin 1987 MISSING (NI)
Next storm 1988 ARINY (SI)

top of page IBTrACS Data: File Access

top of page HURSAT Data: File Access

Image of storm

top of page Plots:

Map of storm track will not appear if FTP is down
Time series of cyclone Maximum Sustained Wind will not appear if FTP is down
Time series of cyclone Minimum Central Pressure will not appear if FTP is down

top of page Track Data:Position

jtwc_io td9636
Date Lat Lon Lat Lon
1987-12-02 00:00:00 9.9 84.8 9.9 84.8
1987-12-02 06:00:00 10.1 84.4 10.1 84.4
1987-12-02 12:00:00 10.3 84.0 10.3 84.0
1987-12-02 18:00:00 10.4 83.7 10.5 83.7
1987-12-03 00:00:00 10.6 83.3 10.6 83.3
1987-12-03 06:00:00 10.7 82.9 10.8 82.9
1987-12-03 12:00:00 10.9 82.5 10.9 82.5
1987-12-03 18:00:00 11.0 81.8 11.0 82.0
1987-12-04 00:00:00 11.0 81.5 11.0 81.5
1987-12-04 06:00:00 11.0 81.0 10.9 81.0
1987-12-04 12:00:00 10.8 80.5 10.8 80.5
1987-12-04 18:00:00 10.7 80.0 10.6 80.0
1987-12-05 00:00:00 10.4 79.5 10.4 79.5
1987-12-05 06:00:00 10.1 79.0 10.1 79.0
1987-12-05 12:00:00 9.7 78.5 9.7 78.5
1987-12-05 18:00:00 9.4 78.0 9.4 78.0
1987-12-06 00:00:00 9.1 77.4 9.1 77.4
1987-12-06 06:00:00 8.7 76.8 8.8 76.7
1987-12-06 12:00:00 8.6 75.9 8.6 75.9
1987-12-06 18:00:00 8.7 74.9 8.7 75.0
1987-12-07 00:00:00 8.9 74.1 8.9 74.1
1987-12-07 06:00:00 9.3 73.4 9.2 73.4
1987-12-07 12:00:00 9.6 72.8 9.6 72.8
1987-12-07 18:00:00 9.9 72.3 9.9 72.3
1987-12-08 00:00:00 10.2 71.8 10.2 71.8
jtwc_io td9636
1987-12-08 06:00:00 10.5 71.2 10.5 71.2
1987-12-08 12:00:00 10.9 70.7 10.9 70.7
1987-12-08 18:00:00 11.2 70.3 11.2 70.3
1987-12-09 00:00:00 11.6 70.0 11.6 70.0
1987-12-09 06:00:00 12.0 69.9 12.1 69.9
1987-12-09 12:00:00 12.6 70.0 12.6 70.0
1987-12-09 18:00:00 13.3 70.1 13.3 70.1
1987-12-10 00:00:00 13.9 70.3 13.9 70.3
1987-12-10 06:00:00 14.3 70.6 14.3 70.6
1987-12-10 12:00:00 14.7 71.0 14.7 71.0
1987-12-10 18:00:00 15.0 71.3 15.0 71.3
1987-12-11 00:00:00 15.4 71.6 15.4 71.6
1987-12-11 06:00:00 15.9 71.9 15.9 71.9
1987-12-11 12:00:00 16.4 72.3 16.4 72.3
1987-12-11 18:00:00 16.9 72.7 16.9 72.7
1987-12-12 00:00:00 17.5 73.2 17.5 73.2
1987-12-12 06:00:00 18.1 73.7 18.3 73.9
1987-12-12 12:00:00 19.2 74.6 19.2 74.6
1987-12-12 18:00:00 19.8 75.4 19.9 75.4
1987-12-13 00:00:00 20.5 76.1 20.5 76.1

top of pageTrack Data:Intensity

jtwc_io td9636
Date Wind Pres Wind Pres
1987-12-02 00:00:00 15. 15.
1987-12-02 06:00:00 15. 15.
1987-12-02 12:00:00 15. 15.
1987-12-02 18:00:00 20. 15.
1987-12-03 00:00:00 20. 20.
1987-12-03 06:00:00 20. 20.
1987-12-03 12:00:00 20. 20.
1987-12-03 18:00:00 25. 20.
1987-12-04 00:00:00 30. 30.
1987-12-04 06:00:00 30. 30.
1987-12-04 12:00:00 30. 30.
1987-12-04 18:00:00 30. 30.
1987-12-05 00:00:00 25. 25.
1987-12-05 06:00:00 25. 25.
1987-12-05 12:00:00 20. 20.
1987-12-05 18:00:00 15. 20.
1987-12-06 00:00:00 15. 15.
1987-12-06 06:00:00 15. 15.
1987-12-06 12:00:00 20. 20.
1987-12-06 18:00:00 20. 20.
1987-12-07 00:00:00 20. 20.
1987-12-07 06:00:00 20. 20.
1987-12-07 12:00:00 25. 25.
1987-12-07 18:00:00 25. 25.
1987-12-08 00:00:00 30. 30.
jtwc_io td9636
1987-12-08 06:00:00 30. 30.
1987-12-08 12:00:00 35. 35.
1987-12-08 18:00:00 35. 35.
1987-12-09 00:00:00 35. 35.
1987-12-09 06:00:00 35. 35.
1987-12-09 12:00:00 35. 35.
1987-12-09 18:00:00 40. 35.
1987-12-10 00:00:00 40. 40.
1987-12-10 06:00:00 45. 40.
1987-12-10 12:00:00 45. 45.
1987-12-10 18:00:00 45. 45.
1987-12-11 00:00:00 40. 40.
1987-12-11 06:00:00 35. 40.
1987-12-11 12:00:00 35. 35.
1987-12-11 18:00:00 30. 35.
1987-12-12 00:00:00 30. 30.
1987-12-12 06:00:00 20. 30.
1987-12-12 12:00:00 20. 20.
1987-12-12 18:00:00 15. 20.
1987-12-13 00:00:00 10. 10.

top of page Links to source data

Source Source file Format
jtwc_io bio071987.txt ATCF
td9636 cons_worldwide_trop_cyclone_18710101-19891231-004:Line=12552 TD 9636